Joel, Wisconsin
Current Conditions -  °F | °C
As of 9:35 AM on Thursday 23 Oct 2014 (Local Time) from KOEO Reporting Station
Haze Haze  
Wind Chill: 51°   Ceiling: 400
Heat Index: 51°   Visibility: 5mi
Dew Point: 51°   Wind: 3mph
Humidity: 100%   Direction: 170°S
Pressure: 30.03"   Gusts: NA
Location:  45.3559°N, 92.3527°W
Report Text: KOEO 231435Z AUTO 17003KT 5SM BR OVC004 11/11 A3003 RMK AO2 T01050105
Loading
Personal Weather Stations






























Interactive Weather Map New forecast layout! Learn more

10-Day Weather Forecast

Advertisements
Track Severe Weather on mobile